createdAt,value
2018-08-07T00:00:53.606Z,24.20
2018-08-07T00:03:21.694Z,24.20
2018-08-07T00:05:49.997Z,24.20
2018-08-07T00:08:18.050Z,24.10
2018-08-07T00:10:45.459Z,24.10
2018-08-07T00:13:13.502Z,24.00
2018-08-07T00:15:41.581Z,24.00
2018-08-07T00:18:09.748Z,23.90
2018-08-07T00:20:37.817Z,23.90
2018-08-07T00:23:05.893Z,23.90
2018-08-07T00:25:33.983Z,23.90
2018-08-07T00:28:02.069Z,23.90
2018-08-07T00:30:30.150Z,24.00
2018-08-07T00:32:58.231Z,23.90
2018-08-07T00:35:26.277Z,23.90
2018-08-07T00:37:54.441Z,23.90
2018-08-07T00:42:50.301Z,23.80
2018-08-07T00:45:19.569Z,23.70
2018-08-07T00:47:47.877Z,23.70
2018-08-07T00:50:17.484Z,23.70
2018-08-07T00:52:46.777Z,23.60
2018-08-07T00:55:15.538Z,23.60
2018-08-07T00:57:43.791Z,23.60
2018-08-07T01:00:13.039Z,23.60
2018-08-07T01:02:41.109Z,23.60
2018-08-07T01:05:11.146Z,23.60
2018-08-07T01:07:39.263Z,23.60
2018-08-07T01:10:09.540Z,23.50
2018-08-07T01:12:37.888Z,23.50
2018-08-07T01:17:35.909Z,23.50
2018-08-07T01:20:06.875Z,23.40
2018-08-07T01:25:02.885Z,23.50
2018-08-07T01:27:30.317Z,23.50
2018-08-07T01:32:24.902Z,23.50
2018-08-07T01:34:52.295Z,23.50
2018-08-07T01:37:19.722Z,23.40
2018-08-07T01:39:47.115Z,23.40
2018-08-07T01:42:14.513Z,23.40
2018-08-07T01:44:41.916Z,23.40
2018-08-07T01:47:09.361Z,23.40
2018-08-07T01:49:36.769Z,23.40
2018-08-07T01:52:04.260Z,23.30
2018-08-07T01:54:31.665Z,23.20
2018-08-07T01:59:26.897Z,23.10
2018-08-07T02:01:54.354Z,23.20
2018-08-07T02:04:21.736Z,23.10
2018-08-07T02:06:49.145Z,23.10
2018-08-07T02:09:16.572Z,23.10
2018-08-07T02:11:44.201Z,23.10
2018-08-07T02:14:11.641Z,23.20
2018-08-07T02:16:40.623Z,23.20
2018-08-07T02:19:08.042Z,23.10
2018-08-07T02:24:02.716Z,23.10
2018-08-07T02:28:57.298Z,23.10
2018-08-07T02:31:24.712Z,23.10
2018-08-07T02:36:20.006Z,23.10
2018-08-07T02:38:48.069Z,23.00
2018-08-07T02:43:42.702Z,23.00
2018-08-07T02:46:10.117Z,23.00
2018-08-07T02:48:37.557Z,23.00
2018-08-07T02:51:04.979Z,23.00
2018-08-07T02:55:59.584Z,23.00
2018-08-07T02:58:27.651Z,23.00
2018-08-07T03:00:55.054Z,22.90
2018-08-07T03:08:16.889Z,22.80
2018-08-07T03:10:44.314Z,22.70
2018-08-07T03:13:11.757Z,22.80
2018-08-07T03:15:39.850Z,22.70
2018-08-07T03:18:07.266Z,22.70
2018-08-07T03:20:34.694Z,22.70
2018-08-07T03:25:29.969Z,22.60
2018-08-07T03:27:58.078Z,22.70
2018-08-07T03:30:26.713Z,22.60
2018-08-07T03:32:54.186Z,22.60
2018-08-07T03:35:21.581Z,22.50
2018-08-07T03:37:49.013Z,22.60
2018-08-07T03:40:17.530Z,22.50
2018-08-07T03:42:45.149Z,22.50
2018-08-07T03:47:43.536Z,22.60
2018-08-07T03:50:11.796Z,22.40
2018-08-07T03:52:39.749Z,22.40
2018-08-07T03:55:09.242Z,22.40
2018-08-07T03:57:37.541Z,22.40
2018-08-07T04:00:06.950Z,22.30
2018-08-07T04:02:34.353Z,22.30
2018-08-07T04:05:01.825Z,22.20
2018-08-07T04:07:29.215Z,22.20
2018-08-07T04:09:56.870Z,22.20
2018-08-07T04:12:24.357Z,22.20
2018-08-07T04:14:51.774Z,22.20
2018-08-07T04:17:19.183Z,22.30
2018-08-07T04:19:47.262Z,22.20
2018-08-07T04:22:14.689Z,22.20
2018-08-07T04:24:42.072Z,22.20
2018-08-07T04:27:09.493Z,22.20
2018-08-07T04:29:36.892Z,22.20
2018-08-07T04:34:32.873Z,22.20
2018-08-07T04:37:00.226Z,22.20
2018-08-07T04:39:27.656Z,22.20
2018-08-07T04:41:55.746Z,22.20
2018-08-07T04:44:23.809Z,22.10
2018-08-07T04:46:51.889Z,22.10
2018-08-07T04:49:19.282Z,22.20
2018-08-07T04:51:46.707Z,22.30
2018-08-07T04:54:14.094Z,22.30
2018-08-07T04:56:41.545Z,22.40
2018-08-07T04:59:09.666Z,22.50
2018-08-07T05:01:37.075Z,22.50
2018-08-07T05:04:05.151Z,22.50
2018-08-07T05:06:32.559Z,22.60
2018-08-07T05:08:59.952Z,22.60
2018-08-07T05:13:55.320Z,22.60
2018-08-07T05:16:22.721Z,22.70
2018-08-07T05:18:50.806Z,22.70
2018-08-07T05:21:18.201Z,22.70
2018-08-07T05:23:46.276Z,22.70
2018-08-07T05:26:13.657Z,22.70
2018-08-07T05:28:41.144Z,22.80
2018-08-07T05:31:09.169Z,22.80
2018-08-07T05:36:03.745Z,23.00
2018-08-07T05:40:59.950Z,22.90
2018-08-07T05:43:27.990Z,22.80
2018-08-07T05:45:55.393Z,22.90
2018-08-07T05:48:22.829Z,22.90
2018-08-07T05:50:50.631Z,23.00
2018-08-07T05:53:18.311Z,23.10
2018-08-07T05:55:45.701Z,23.10
2018-08-07T05:58:13.101Z,23.10
2018-08-07T06:00:41.154Z,23.20
2018-08-07T06:03:08.572Z,23.10
2018-08-07T06:05:35.951Z,23.10
2018-08-07T06:08:03.337Z,23.10
2018-08-07T06:10:30.733Z,23.30
2018-08-07T06:12:58.121Z,23.30
2018-08-07T06:15:25.501Z,23.30
2018-08-07T06:17:52.899Z,23.40
2018-08-07T06:20:20.280Z,23.40
2018-08-07T06:22:47.674Z,23.50
2018-08-07T06:25:15.061Z,23.50
2018-08-07T06:27:42.437Z,23.60
2018-08-07T06:30:13.821Z,23.60
2018-08-07T06:32:41.209Z,23.60
2018-08-07T06:35:08.808Z,23.60
2018-08-07T06:37:36.242Z,23.70
2018-08-07T06:42:31.062Z,23.90
2018-08-07T06:44:58.454Z,24.10
2018-08-07T06:47:25.845Z,24.10
2018-08-07T06:49:53.243Z,24.20
2018-08-07T06:52:20.608Z,24.20
2018-08-07T06:54:47.998Z,24.40
2018-08-07T06:57:15.393Z,24.40
2018-08-07T06:59:42.785Z,24.40
2018-08-07T07:02:10.177Z,24.60
2018-08-07T07:04:37.557Z,24.60
2018-08-07T07:07:05.114Z,24.60
2018-08-07T07:09:33.227Z,24.70
2018-08-07T07:12:00.549Z,24.80
2018-08-07T07:14:27.932Z,24.90
2018-08-07T07:16:55.317Z,24.90
2018-08-07T07:21:49.893Z,25.10
2018-08-07T07:26:44.526Z,25.20
2018-08-07T07:29:11.865Z,25.20
2018-08-07T07:31:39.250Z,25.20
2018-08-07T07:34:06.642Z,25.20
2018-08-07T07:36:34.024Z,25.20
2018-08-07T07:41:28.596Z,25.20
2018-08-07T07:43:55.972Z,25.20
2018-08-07T07:46:23.369Z,25.20
2018-08-07T07:48:50.769Z,25.40
2018-08-07T07:51:18.160Z,25.40
2018-08-07T07:56:12.729Z,25.50
2018-08-07T07:58:40.128Z,25.70
2018-08-07T08:01:07.876Z,25.90
2018-08-07T08:03:35.253Z,26.00
2018-08-07T08:06:02.686Z,26.20
2018-08-07T08:08:30.036Z,26.30
2018-08-07T08:10:57.437Z,26.40
2018-08-07T08:13:24.803Z,26.50
2018-08-07T08:15:52.205Z,26.60
2018-08-07T08:18:19.581Z,26.80
2018-08-07T08:20:46.973Z,26.90
2018-08-07T08:23:14.353Z,26.90
2018-08-07T08:25:41.758Z,27.10
2018-08-07T08:28:09.152Z,27.10
2018-08-07T08:30:36.553Z,27.20
2018-08-07T08:33:03.945Z,27.40
2018-08-07T08:35:31.515Z,27.60
2018-08-07T08:37:58.740Z,27.80
2018-08-07T08:42:53.348Z,27.90
2018-08-07T08:45:21.786Z,27.90
2018-08-07T08:47:49.933Z,27.90
2018-08-07T08:50:19.231Z,28.10
2018-08-07T08:55:14.456Z,28.30
2018-08-07T08:57:42.487Z,28.30
2018-08-07T09:00:13.526Z,28.40
2018-08-07T09:02:42.642Z,28.50
2018-08-07T09:05:11.105Z,28.70
2018-08-07T09:07:39.682Z,28.80
2018-08-07T09:10:10.535Z,28.90
2018-08-07T09:15:06.398Z,28.70
2018-08-07T09:17:34.443Z,28.50
2018-08-07T09:20:02.500Z,28.50
2018-08-07T09:22:30.555Z,28.60
2018-08-07T09:24:58.285Z,28.60
2018-08-07T09:27:26.393Z,28.80
2018-08-07T09:29:54.382Z,28.90
2018-08-07T09:32:21.813Z,29.10
2018-08-07T09:37:16.366Z,29.40
2018-08-07T09:39:44.499Z,29.50
2018-08-07T09:42:12.462Z,29.70
2018-08-07T09:44:40.526Z,29.60
2018-08-07T09:47:08.570Z,29.60
2018-08-07T09:49:36.622Z,29.60
2018-08-07T09:52:04.674Z,29.50
2018-08-07T09:54:32.726Z,29.60
2018-08-07T09:57:00.774Z,29.50
2018-08-07T09:59:28.822Z,29.40
2018-08-07T10:02:02.217Z,29.40
2018-08-07T10:04:30.253Z,29.60
2018-08-07T10:06:57.649Z,29.70
2018-08-07T10:09:25.042Z,29.90
2018-08-07T10:11:52.440Z,30.10
2018-08-07T10:16:47.673Z,30.40
2018-08-07T10:19:15.723Z,30.60
2018-08-07T10:21:43.105Z,30.80
2018-08-07T10:24:11.145Z,30.90
2018-08-07T10:26:39.197Z,30.90
2018-08-07T10:29:06.785Z,31.00
2018-08-07T10:31:34.137Z,31.30
2018-08-07T10:34:01.535Z,31.50
2018-08-07T10:36:28.956Z,31.70
2018-08-07T10:38:56.457Z,32.00
2018-08-07T10:43:51.159Z,32.40
2018-08-07T10:48:45.589Z,32.50
2018-08-07T10:51:12.987Z,32.30
2018-08-07T10:53:41.033Z,32.00
2018-08-07T10:56:08.408Z,31.60
2018-08-07T10:58:35.810Z,31.30
2018-08-07T11:01:03.193Z,30.90
2018-08-07T11:03:30.576Z,30.60
2018-08-07T11:08:25.169Z,30.10
2018-08-07T11:10:52.541Z,30.00
2018-08-07T11:13:19.923Z,29.80
2018-08-07T11:15:47.325Z,29.60
2018-08-07T11:18:14.705Z,29.40
2018-08-07T11:23:09.934Z,29.20
2018-08-07T11:25:37.329Z,29.20
2018-08-07T11:30:33.217Z,28.90
2018-08-07T11:33:02.089Z,28.90
2018-08-07T11:35:30.160Z,28.90
2018-08-07T11:37:59.430Z,28.90
2018-08-07T11:40:27.495Z,28.80
2018-08-07T11:42:56.362Z,28.80
2018-08-07T11:45:26.162Z,28.80
2018-08-07T11:47:54.387Z,28.70
2018-08-07T11:50:23.937Z,28.70
2018-08-07T11:55:20.327Z,28.70
2018-08-07T11:57:49.658Z,28.60
2018-08-07T12:00:22.697Z,28.60
2018-08-07T12:02:50.094Z,28.50
2018-08-07T12:05:17.605Z,28.30
2018-08-07T12:10:13.301Z,28.30
2018-08-07T12:12:42.143Z,28.30
2018-08-07T12:15:14.536Z,28.30
2018-08-07T12:17:41.933Z,28.40
2018-08-07T12:20:09.341Z,28.40
2018-08-07T12:22:36.865Z,28.50
2018-08-07T12:25:04.667Z,28.50
2018-08-07T12:27:32.183Z,28.50
2018-08-07T12:29:59.701Z,28.50
2018-08-07T12:34:54.272Z,28.50
2018-08-07T12:39:48.832Z,28.40
2018-08-07T12:42:16.217Z,28.30
2018-08-07T12:44:44.266Z,28.20
2018-08-07T12:47:11.665Z,28.20
2018-08-07T12:49:39.298Z,28.10
2018-08-07T12:52:06.916Z,28.00
2018-08-07T12:54:34.309Z,27.90
2018-08-07T12:57:01.693Z,27.80
2018-08-07T12:59:29.085Z,27.70
2018-08-07T13:01:56.490Z,27.70
2018-08-07T13:04:23.890Z,27.50
2018-08-07T13:06:51.402Z,27.50
2018-08-07T13:09:18.678Z,27.30
2018-08-07T13:11:46.053Z,27.30
2018-08-07T13:14:47.427Z,27.30
2018-08-07T13:17:15.004Z,27.30
2018-08-07T13:19:42.377Z,27.20
2018-08-07T13:22:10.069Z,27.20
2018-08-07T13:24:37.504Z,27.10
2018-08-07T13:27:04.881Z,27.00
2018-08-07T13:29:32.264Z,27.00
2018-08-07T13:31:59.670Z,27.10
2018-08-07T13:34:27.070Z,27.10
2018-08-07T13:36:54.470Z,27.20
2018-08-07T13:39:21.837Z,27.20
2018-08-07T13:41:49.280Z,27.20
2018-08-07T13:44:16.653Z,27.30
2018-08-07T13:46:44.037Z,27.20
2018-08-07T13:49:11.435Z,27.20
2018-08-07T13:51:38.821Z,27.10
2018-08-07T13:54:06.240Z,27.00
2018-08-07T13:56:33.641Z,26.90
2018-08-07T13:59:01.029Z,26.90
2018-08-07T14:01:28.421Z,26.80
2018-08-07T14:03:55.818Z,26.80
2018-08-07T14:06:23.215Z,26.80
2018-08-07T14:08:50.599Z,26.80
2018-08-07T14:11:17.985Z,26.80
2018-08-07T14:13:45.473Z,26.70
2018-08-07T14:16:12.861Z,26.70
2018-08-07T14:18:40.245Z,26.70
2018-08-07T14:21:07.675Z,26.70
2018-08-07T14:23:35.062Z,26.80
2018-08-07T14:26:02.445Z,26.80
2018-08-07T14:28:29.836Z,26.80
2018-08-07T14:30:57.217Z,26.70
2018-08-07T14:33:24.597Z,26.70
2018-08-07T14:35:51.994Z,26.70
2018-08-07T14:38:19.385Z,26.80
2018-08-07T14:40:46.765Z,26.80
2018-08-07T14:43:14.169Z,26.70
2018-08-07T14:45:41.561Z,26.80
2018-08-07T14:48:08.942Z,26.80
2018-08-07T14:50:36.341Z,26.80
2018-08-07T14:53:03.744Z,26.80
2018-08-07T14:55:31.121Z,26.80
2018-08-07T14:57:58.564Z,26.80
2018-08-07T15:00:29.362Z,26.80
2018-08-07T15:02:56.702Z,26.80
2018-08-07T15:05:24.089Z,26.80
2018-08-07T15:07:51.484Z,26.80
2018-08-07T15:10:20.696Z,27.00
2018-08-07T15:12:48.084Z,26.90
2018-08-07T15:15:16.625Z,26.90
2018-08-07T15:17:44.022Z,26.90
2018-08-07T15:20:12.722Z,26.90
2018-08-07T15:22:40.129Z,26.90
2018-08-07T15:25:08.249Z,26.90
2018-08-07T15:27:35.645Z,26.90
2018-08-07T15:30:03.088Z,27.00
2018-08-07T15:32:30.481Z,27.00
2018-08-07T15:34:57.875Z,26.90
2018-08-07T15:37:25.278Z,27.00
2018-08-07T15:39:52.664Z,27.00
2018-08-07T15:42:20.076Z,27.10
2018-08-07T15:44:47.469Z,27.10
2018-08-07T15:47:14.861Z,27.00
2018-08-07T15:49:42.244Z,27.00
2018-08-07T15:52:09.645Z,27.00
2018-08-07T15:54:37.057Z,26.90
2018-08-07T15:57:04.433Z,26.90
2018-08-07T15:59:31.826Z,27.00
2018-08-07T16:01:59.239Z,27.00
2018-08-07T16:04:26.625Z,27.00
2018-08-07T16:06:54.017Z,27.00
2018-08-07T16:09:21.522Z,27.00
2018-08-07T16:11:48.857Z,27.00
2018-08-07T16:14:16.248Z,27.00
2018-08-07T16:16:43.683Z,27.00
2018-08-07T16:19:11.051Z,27.00
2018-08-07T16:21:38.446Z,27.00
2018-08-07T16:24:05.825Z,27.00
2018-08-07T16:26:33.266Z,27.00
2018-08-07T16:29:00.661Z,27.10
2018-08-07T16:31:28.050Z,27.20
2018-08-07T16:33:55.557Z,27.10
2018-08-07T16:36:22.948Z,27.00
2018-08-07T16:38:50.345Z,26.90
2018-08-07T16:41:17.741Z,26.90
2018-08-07T16:43:45.146Z,26.90
2018-08-07T16:46:12.528Z,27.00
2018-08-07T16:48:39.920Z,26.90
2018-08-07T16:51:07.312Z,27.00
2018-08-07T16:53:34.713Z,27.10
2018-08-07T16:56:02.098Z,27.10
2018-08-07T16:58:29.502Z,27.10
2018-08-07T17:00:56.881Z,27.10
2018-08-07T17:03:24.286Z,27.10
2018-08-07T17:05:51.669Z,27.10
2018-08-07T17:08:19.050Z,26.90
2018-08-07T17:10:46.483Z,26.90
2018-08-07T17:13:13.821Z,26.80
2018-08-07T17:15:41.209Z,26.80
2018-08-07T17:18:08.615Z,26.70
2018-08-07T17:20:36.010Z,26.70
2018-08-07T17:23:03.401Z,26.60
2018-08-07T17:25:30.798Z,26.50
2018-08-07T17:27:58.199Z,26.40
2018-08-07T17:30:27.055Z,26.30
2018-08-07T17:32:54.561Z,26.20
2018-08-07T17:35:23.125Z,26.10
2018-08-07T17:37:51.235Z,26.00
2018-08-07T17:40:19.489Z,25.90
2018-08-07T17:42:46.881Z,25.90
2018-08-07T17:45:14.282Z,25.80
2018-08-07T17:47:41.684Z,25.70
2018-08-07T17:50:11.160Z,25.70
2018-08-07T17:52:38.601Z,25.60
2018-08-07T17:55:06.281Z,25.60
2018-08-07T17:57:33.694Z,25.60
2018-08-07T18:00:01.085Z,25.50
2018-08-07T18:02:28.483Z,25.40
2018-08-07T18:04:55.884Z,25.30
2018-08-07T18:07:23.298Z,25.20
2018-08-07T18:09:50.688Z,25.20
2018-08-07T18:12:18.245Z,25.10
2018-08-07T18:14:45.657Z,25.10
2018-08-07T18:17:13.080Z,24.90
2018-08-07T18:19:40.508Z,24.80
2018-08-07T18:22:09.038Z,24.80
2018-08-07T18:24:36.421Z,24.70
2018-08-07T18:27:03.876Z,24.60
2018-08-07T18:29:31.259Z,24.50
2018-08-07T18:31:58.673Z,24.40
2018-08-07T18:34:26.052Z,24.40
2018-08-07T18:36:53.454Z,24.30
2018-08-07T18:39:20.877Z,24.10
2018-08-07T18:41:48.284Z,24.10
2018-08-07T18:44:15.665Z,24.00
2018-08-07T18:46:43.073Z,23.90
2018-08-07T18:49:10.485Z,23.80
2018-08-07T18:51:37.874Z,23.70
2018-08-07T18:54:05.704Z,23.70
2018-08-07T18:56:33.100Z,23.70
2018-08-07T18:59:00.486Z,23.60
2018-08-07T19:01:27.885Z,23.60
2018-08-07T19:03:55.268Z,23.50
2018-08-07T19:06:22.677Z,23.50
2018-08-07T19:08:50.070Z,23.50
2018-08-07T19:11:17.470Z,23.50
2018-08-07T19:13:44.864Z,23.40
2018-08-07T19:16:12.269Z,23.50
2018-08-07T19:18:39.650Z,23.50
2018-08-07T19:21:07.045Z,23.50
2018-08-07T19:23:34.441Z,23.50
2018-08-07T19:26:01.842Z,23.40
2018-08-07T19:28:29.273Z,23.50
2018-08-07T19:30:56.661Z,23.50
2018-08-07T19:33:24.039Z,23.50
2018-08-07T19:35:51.433Z,23.50
2018-08-07T19:38:18.869Z,23.50
2018-08-07T19:40:46.267Z,23.40
2018-08-07T19:43:13.656Z,23.40
2018-08-07T19:45:41.046Z,23.30
2018-08-07T19:48:08.465Z,23.20
2018-08-07T19:50:35.898Z,23.20
2018-08-07T19:53:03.354Z,23.20
2018-08-07T19:55:31.411Z,23.10
2018-08-07T19:57:59.465Z,23.10
2018-08-07T20:00:27.937Z,23.10
2018-08-07T20:02:55.717Z,23.00
2018-08-07T20:05:23.343Z,23.00
2018-08-07T20:07:51.181Z,23.10
2018-08-07T20:10:19.235Z,23.00
2018-08-07T20:12:46.686Z,23.00
2018-08-07T20:15:18.468Z,23.00
2018-08-07T20:17:46.005Z,23.00
2018-08-07T20:20:13.416Z,23.00
2018-08-07T20:22:40.907Z,23.00
2018-08-07T20:25:09.777Z,23.00
2018-08-07T20:27:37.376Z,22.90
2018-08-07T20:30:08.770Z,22.80
2018-08-07T20:32:36.218Z,22.70
2018-08-07T20:35:04.341Z,22.60
2018-08-07T20:37:31.810Z,22.60
2018-08-07T20:39:59.211Z,22.60
2018-08-07T20:42:26.606Z,22.70
2018-08-07T20:44:53.997Z,22.70
2018-08-07T20:47:21.422Z,22.70
2018-08-07T20:49:48.818Z,22.70
2018-08-07T20:52:16.312Z,22.70
2018-08-07T20:54:43.649Z,22.70
2018-08-07T20:57:11.081Z,22.70
2018-08-07T20:59:38.518Z,22.70
2018-08-07T21:02:05.921Z,22.70
2018-08-07T21:04:33.333Z,22.80
2018-08-07T21:07:00.746Z,22.70
2018-08-07T21:09:28.165Z,22.70
2018-08-07T21:11:55.575Z,22.70
2018-08-07T21:14:22.962Z,22.70
2018-08-07T21:16:51.034Z,22.60
2018-08-07T21:19:18.488Z,22.50
2018-08-07T21:21:45.883Z,22.40
2018-08-07T21:24:13.320Z,22.30
2018-08-07T21:26:40.700Z,22.20
2018-08-07T21:29:08.109Z,22.10
2018-08-07T21:31:35.547Z,22.10
2018-08-07T21:34:02.968Z,22.10
2018-08-07T21:36:30.358Z,21.90
2018-08-07T21:38:57.773Z,21.80
2018-08-07T21:41:25.217Z,21.70
2018-08-07T21:43:52.611Z,21.60
2018-08-07T21:46:20.696Z,21.60
2018-08-07T21:48:48.168Z,21.60
2018-08-07T21:51:16.220Z,21.50
2018-08-07T21:53:44.275Z,21.50
2018-08-07T21:56:12.333Z,21.50
2018-08-07T21:58:40.621Z,21.50
2018-08-07T22:01:09.845Z,21.50
2018-08-07T22:03:38.153Z,21.50
2018-08-07T22:06:05.846Z,21.50
2018-08-07T22:08:33.285Z,21.40
2018-08-07T22:12:10.423Z,21.30
2018-08-07T22:14:37.858Z,21.30
2018-08-07T22:17:05.309Z,21.20
2018-08-07T22:19:32.785Z,21.20
2018-08-07T22:22:00.225Z,21.20
2018-08-07T22:24:28.221Z,21.20
2018-08-07T22:26:55.734Z,21.10
2018-08-07T22:29:23.866Z,21.00
2018-08-07T22:31:51.965Z,20.90
2018-08-07T22:34:20.031Z,20.80
2018-08-07T22:36:48.061Z,20.90
2018-08-07T22:39:16.103Z,20.80
2018-08-07T22:41:44.194Z,20.80
2018-08-07T22:44:12.326Z,20.80
2018-08-07T22:46:40.391Z,20.80
2018-08-07T22:49:08.506Z,20.70
2018-08-07T22:51:36.614Z,20.70
2018-08-07T22:54:04.668Z,20.70
2018-08-07T22:56:32.734Z,20.60
2018-08-07T22:59:00.797Z,20.60
2018-08-07T23:01:28.181Z,20.50
2018-08-07T23:03:55.564Z,20.50
2018-08-07T23:06:22.982Z,20.40
2018-08-07T23:08:50.383Z,20.40
2018-08-07T23:11:17.838Z,20.30
2018-08-07T23:13:45.228Z,20.30
2018-08-07T23:16:12.638Z,20.30
2018-08-07T23:18:40.017Z,20.30
2018-08-07T23:21:07.436Z,20.30
2018-08-07T23:23:34.818Z,20.20
2018-08-07T23:26:02.275Z,20.30
2018-08-07T23:28:29.665Z,20.30
2018-08-07T23:30:57.065Z,20.30
2018-08-07T23:33:25.118Z,20.30
2018-08-07T23:35:53.178Z,20.30
2018-08-07T23:38:21.263Z,20.30
2018-08-07T23:40:49.350Z,20.30
2018-08-07T23:43:16.766Z,20.30
2018-08-07T23:45:44.172Z,20.40
2018-08-07T23:48:11.598Z,20.30
2018-08-07T23:50:39.017Z,20.30
2018-08-07T23:53:07.123Z,20.40
2018-08-07T23:55:35.182Z,20.40
2018-08-07T23:58:03.297Z,20.40
